createdAt,value
2017-12-05T00:00:00.419Z,774.67
2017-12-05T00:00:04.656Z,774.66
2017-12-05T00:00:08.580Z,774.67
2017-12-05T00:00:12.827Z,774.68
2017-12-05T00:00:17.065Z,774.68
2017-12-05T00:00:21.410Z,774.67
2017-12-05T00:00:25.639Z,774.68
2017-12-05T00:00:29.983Z,774.68
2017-12-05T00:00:34.233Z,774.67
2017-12-05T00:00:38.597Z,774.67
2017-12-05T00:00:42.837Z,774.67
2017-12-05T00:00:47.180Z,774.67
2017-12-05T00:00:51.540Z,774.67
2017-12-05T00:00:55.768Z,774.68
2017-12-05T00:00:59.895Z,774.67
2017-12-05T00:01:04.151Z,774.65
2017-12-05T00:01:08.283Z,774.67
2017-12-05T00:01:12.644Z,774.68
2017-12-05T00:01:16.890Z,774.68
2017-12-05T00:01:21.230Z,774.67
2017-12-05T00:01:25.595Z,774.68
2017-12-05T00:01:29.843Z,774.67
2017-12-05T00:01:33.960Z,774.66
2017-12-05T00:01:38.099Z,774.68
2017-12-05T00:01:42.249Z,774.69
2017-12-05T00:01:46.389Z,774.67
2017-12-05T00:01:50.418Z,774.7
2017-12-05T00:01:54.766Z,774.69
2017-12-05T00:01:59.162Z,774.69
2017-12-05T00:02:03.761Z,774.7
2017-12-05T00:02:07.998Z,774.68
2017-12-05T00:02:12.258Z,774.71
2017-12-05T00:02:16.513Z,774.7
2017-12-05T00:02:20.881Z,774.72
2017-12-05T00:02:25.119Z,774.68
2017-12-05T00:02:29.475Z,774.7
2017-12-05T00:02:33.820Z,774.71
2017-12-05T00:02:37.861Z,774.7
2017-12-05T00:02:42.262Z,774.71
2017-12-05T00:02:46.514Z,774.72
2017-12-05T00:02:50.749Z,774.72
2017-12-05T00:02:55.106Z,774.73
2017-12-05T00:02:59.450Z,774.7
2017-12-05T00:03:03.688Z,774.71
2017-12-05T00:03:08.028Z,774.74
2017-12-05T00:03:12.162Z,774.7
2017-12-05T00:03:16.447Z,774.7
2017-12-05T00:03:20.701Z,774.71
2017-12-05T00:03:25.054Z,774.7
2017-12-05T00:03:29.192Z,774.71
2017-12-05T00:03:33.531Z,774.73
2017-12-05T00:03:37.762Z,774.71
2017-12-05T00:03:42.106Z,774.71
2017-12-05T00:03:46.144Z,774.75
2017-12-05T00:03:50.559Z,774.66
2017-12-05T00:03:54.710Z,774.76
2017-12-05T00:03:58.861Z,774.73
2017-12-05T00:04:03.152Z,774.75
2017-12-05T00:04:07.396Z,774.72
2017-12-05T00:04:11.636Z,774.74
2017-12-05T00:04:15.866Z,774.72
2017-12-05T00:04:19.879Z,774.77
2017-12-05T00:04:24.229Z,774.74
2017-12-05T00:04:28.373Z,774.76
2017-12-05T00:04:32.730Z,774.75
2017-12-05T00:04:36.856Z,774.75
2017-12-05T00:04:41.011Z,774.77
2017-12-05T00:04:45.379Z,774.79
2017-12-05T00:04:49.776Z,774.78
2017-12-05T00:04:54.123Z,774.77
2017-12-05T00:04:58.462Z,774.79
2017-12-05T00:05:02.605Z,774.77
2017-12-05T00:05:06.657Z,774.78
2017-12-05T00:05:10.901Z,774.82
2017-12-05T00:05:15.058Z,774.76
2017-12-05T00:05:19.462Z,774.78
2017-12-05T00:05:23.709Z,774.78
2017-12-05T00:05:28.045Z,774.76
2017-12-05T00:05:32.288Z,774.78
2017-12-05T00:05:36.545Z,774.75
2017-12-05T00:05:40.792Z,774.78
2017-12-05T00:05:44.922Z,774.79
2017-12-05T00:05:49.054Z,774.81
2017-12-05T00:05:53.296Z,774.82
2017-12-05T00:05:57.225Z,774.83
2017-12-05T00:06:01.578Z,774.79
2017-12-05T00:06:05.827Z,774.79
2017-12-05T00:06:10.164Z,774.8
2017-12-05T00:06:14.502Z,774.82
2017-12-05T00:06:18.749Z,774.8
2017-12-05T00:06:22.993Z,774.82
2017-12-05T00:06:27.354Z,774.8
2017-12-05T00:06:31.609Z,774.82
2017-12-05T00:06:35.754Z,774.82
2017-12-05T00:06:39.888Z,774.81
2017-12-05T00:06:44.236Z,774.81
2017-12-05T00:06:48.487Z,774.82
2017-12-05T00:06:52.513Z,774.8
2017-12-05T00:06:56.535Z,774.85
2017-12-05T00:07:00.567Z,774.83
2017-12-05T00:07:04.914Z,774.82
2017-12-05T00:07:09.064Z,774.82
2017-12-05T00:07:13.413Z,774.81
2017-12-05T00:07:17.538Z,774.81
2017-12-05T00:07:21.863Z,774.82
2017-12-05T00:07:26.001Z,774.81
2017-12-05T00:07:30.123Z,774.83
2017-12-05T00:07:34.161Z,774.84
2017-12-05T00:07:38.505Z,774.82
2017-12-05T00:07:42.636Z,774.8
2017-12-05T00:07:46.974Z,774.84
2017-12-05T00:07:51.214Z,774.84
2017-12-05T00:07:55.443Z,774.82
2017-12-05T00:07:59.474Z,774.81
2017-12-05T00:08:03.835Z,774.8
2017-12-05T00:08:07.877Z,774.81
2017-12-05T00:08:11.898Z,774.82
2017-12-05T00:08:16.040Z,774.82
2017-12-05T00:08:20.339Z,774.83
2017-12-05T00:08:24.694Z,774.83
2017-12-05T00:08:28.929Z,774.77
2017-12-05T00:08:33.068Z,774.83
2017-12-05T00:08:37.106Z,774.77
2017-12-05T00:08:41.246Z,774.75
2017-12-05T00:08:45.479Z,774.81
2017-12-05T00:08:49.628Z,774.81
2017-12-05T00:08:53.868Z,774.79
2017-12-05T00:08:58.016Z,774.81
2017-12-05T00:09:02.032Z,774.8
2017-12-05T00:09:06.153Z,774.81
2017-12-05T00:09:10.171Z,774.81
2017-12-05T00:09:14.512Z,774.78
2017-12-05T00:09:18.634Z,774.81
2017-12-05T00:09:22.896Z,774.82
2017-12-05T00:09:27.160Z,774.78
2017-12-05T00:09:31.404Z,774.8
2017-12-05T00:09:35.776Z,774.78
2017-12-05T00:09:40.018Z,774.75
2017-12-05T00:09:44.266Z,774.77
2017-12-05T00:09:48.614Z,774.77
2017-12-05T00:09:52.762Z,774.74
2017-12-05T00:09:57.099Z,774.77
2017-12-05T00:10:01.329Z,774.76
2017-12-05T00:10:05.762Z,774.76
2017-12-05T00:10:10.010Z,774.77
2017-12-05T00:10:14.359Z,774.73
2017-12-05T00:10:18.493Z,774.73
2017-12-05T00:10:22.738Z,774.73
2017-12-05T00:10:26.984Z,774.74
2017-12-05T00:10:31.207Z,774.72
2017-12-05T00:10:35.451Z,774.7
2017-12-05T00:10:39.482Z,774.7
2017-12-05T00:10:43.816Z,774.69
2017-12-05T00:10:48.163Z,774.7
2017-12-05T00:10:52.512Z,774.73
2017-12-05T00:10:56.764Z,774.68
2017-12-05T00:11:01.120Z,774.69
2017-12-05T00:11:05.249Z,774.65
2017-12-05T00:11:09.396Z,774.66
2017-12-05T00:11:13.645Z,774.66
2017-12-05T00:11:17.764Z,774.65
2017-12-05T00:11:21.995Z,774.61
2017-12-05T00:11:26.232Z,774.6
2017-12-05T00:11:30.060Z,774.63
2017-12-05T00:11:34.204Z,774.62
2017-12-05T00:11:38.557Z,774.65
2017-12-05T00:11:42.901Z,774.63
2017-12-05T00:11:47.243Z,774.61
2017-12-05T00:11:51.484Z,774.6
2017-12-05T00:11:55.834Z,774.61
2017-12-05T00:11:59.872Z,774.62
2017-12-05T00:12:04.124Z,774.61
2017-12-05T00:12:08.153Z,774.61
2017-12-05T00:12:12.513Z,774.6
2017-12-05T00:12:16.649Z,774.6
2017-12-05T00:12:21.004Z,774.59
2017-12-05T00:12:25.127Z,774.58
2017-12-05T00:12:29.357Z,774.59
2017-12-05T00:12:33.698Z,774.57
2017-12-05T00:12:37.825Z,774.58
2017-12-05T00:12:42.174Z,774.59
2017-12-05T00:12:46.419Z,774.57
2017-12-05T00:12:50.435Z,774.56
2017-12-05T00:12:54.666Z,774.58
2017-12-05T00:12:58.704Z,774.55
2017-12-05T00:13:03.013Z,774.58
2017-12-05T00:13:07.372Z,774.55
2017-12-05T00:13:11.494Z,774.55
2017-12-05T00:13:15.875Z,774.57
2017-12-05T00:13:20.236Z,774.55
2017-12-05T00:13:24.483Z,774.54
2017-12-05T00:13:28.726Z,774.56
2017-12-05T00:13:32.971Z,774.56
2017-12-05T00:13:37.094Z,774.52
2017-12-05T00:13:41.339Z,774.55
2017-12-05T00:13:45.466Z,774.54
2017-12-05T00:13:49.802Z,774.52
2017-12-05T00:13:53.925Z,774.52
2017-12-05T00:13:58.165Z,774.54
2017-12-05T00:14:02.611Z,774.49
2017-12-05T00:14:06.852Z,774.52
2017-12-05T00:14:10.878Z,774.46
2017-12-05T00:14:15.222Z,774.48
2017-12-05T00:14:19.588Z,774.52
2017-12-05T00:14:23.839Z,774.54
2017-12-05T00:14:28.180Z,774.54
2017-12-05T00:14:32.516Z,774.52
2017-12-05T00:14:36.862Z,774.54
2017-12-05T00:14:41.216Z,774.55
2017-12-05T00:14:45.477Z,774.57
2017-12-05T00:14:49.603Z,774.54
2017-12-05T00:14:53.739Z,774.52
2017-12-05T00:14:57.990Z,774.52
2017-12-05T00:15:02.137Z,774.56
2017-12-05T00:15:06.379Z,774.55
2017-12-05T00:15:10.625Z,774.52
2017-12-05T00:15:14.856Z,774.55
2017-12-05T00:15:19.197Z,774.53
2017-12-05T00:15:23.327Z,774.53
2017-12-05T00:15:27.465Z,774.56
2017-12-05T00:15:31.697Z,774.55
2017-12-05T00:15:36.049Z,774.56
2017-12-05T00:15:40.301Z,774.54
2017-12-05T00:15:44.556Z,774.54
2017-12-05T00:15:48.695Z,774.54
2017-12-05T00:15:53.037Z,774.5
2017-12-05T00:15:57.375Z,774.5
2017-12-05T00:16:01.386Z,774.53
2017-12-05T00:16:05.881Z,774.5
2017-12-05T00:16:10.008Z,774.5
2017-12-05T00:16:14.410Z,774.54
2017-12-05T00:16:18.545Z,774.53
2017-12-05T00:16:22.796Z,774.55
2017-12-05T00:16:27.035Z,774.56
2017-12-05T00:16:31.432Z,774.54
2017-12-05T00:16:35.776Z,774.52
2017-12-05T00:16:40.024Z,774.53
2017-12-05T00:16:44.254Z,774.55
2017-12-05T00:16:48.496Z,774.55
2017-12-05T00:16:52.636Z,774.56
2017-12-05T00:16:56.776Z,774.54
2017-12-05T00:17:00.900Z,774.55
2017-12-05T00:17:05.185Z,774.53
2017-12-05T00:17:09.545Z,774.56
2017-12-05T00:17:13.676Z,774.53
2017-12-05T00:17:17.810Z,774.53
2017-12-05T00:17:22.063Z,774.55
2017-12-05T00:17:26.283Z,774.52
2017-12-05T00:17:30.421Z,774.54
2017-12-05T00:17:34.764Z,774.56
2017-12-05T00:17:39.105Z,774.56
2017-12-05T00:17:43.352Z,774.55
2017-12-05T00:17:47.602Z,774.48
2017-12-05T00:17:51.854Z,774.54
2017-12-05T00:17:55.867Z,774.51
2017-12-05T00:18:00.224Z,774.51
2017-12-05T00:18:04.530Z,774.54
2017-12-05T00:18:08.685Z,774.5
2017-12-05T00:18:13.030Z,774.53
2017-12-05T00:18:17.379Z,774.51
2017-12-05T00:18:21.788Z,774.52
2017-12-05T00:18:26.151Z,774.53
2017-12-05T00:18:30.384Z,774.56
2017-12-05T00:18:34.632Z,774.56
2017-12-05T00:18:38.987Z,774.56
2017-12-05T00:18:43.109Z,774.55
2017-12-05T00:18:47.343Z,774.57
2017-12-05T00:18:51.572Z,774.54
2017-12-05T00:18:55.819Z,774.56
2017-12-05T00:18:59.972Z,774.57
2017-12-05T00:19:04.003Z,774.6
2017-12-05T00:19:08.238Z,774.59
2017-12-05T00:19:12.573Z,774.57
2017-12-05T00:19:16.915Z,774.6
2017-12-05T00:19:21.138Z,774.57
2017-12-05T00:19:25.474Z,774.61
2017-12-05T00:19:29.706Z,774.6
2017-12-05T00:19:33.943Z,774.58
2017-12-05T00:19:38.077Z,774.59
2017-12-05T00:19:42.436Z,774.56
2017-12-05T00:19:46.790Z,774.52
2017-12-05T00:19:50.819Z,774.51
2017-12-05T00:19:55.161Z,774.55
2017-12-05T00:19:59.292Z,774.54
2017-12-05T00:20:03.464Z,774.6
2017-12-05T00:20:07.620Z,774.59
2017-12-05T00:20:11.678Z,774.6
2017-12-05T00:20:15.912Z,774.58
2017-12-05T00:20:20.034Z,774.55
2017-12-05T00:20:24.171Z,774.59
2017-12-05T00:20:28.412Z,774.6
2017-12-05T00:20:32.771Z,774.6
2017-12-05T00:20:37.131Z,774.59
2017-12-05T00:20:41.154Z,774.6
2017-12-05T00:20:45.504Z,774.59
2017-12-05T00:20:49.737Z,774.59
2017-12-05T00:20:53.973Z,774.61
2017-12-05T00:20:58.210Z,774.6
2017-12-05T00:21:02.554Z,774.58
2017-12-05T00:21:06.792Z,774.61
2017-12-05T00:21:10.921Z,774.61
2017-12-05T00:21:15.072Z,774.63
2017-12-05T00:21:19.302Z,774.61
2017-12-05T00:21:23.552Z,774.61
2017-12-05T00:21:27.644Z,774.62
2017-12-05T00:21:31.940Z,774.63
2017-12-05T00:21:36.076Z,774.61
2017-12-05T00:21:40.331Z,774.62
2017-12-05T00:21:44.679Z,774.6
2017-12-05T00:21:49.040Z,774.59
2017-12-05T00:21:53.381Z,774.6
2017-12-05T00:21:57.503Z,774.59
2017-12-05T00:22:01.733Z,774.62
2017-12-05T00:22:05.754Z,774.59
2017-12-05T00:22:09.894Z,774.62
2017-12-05T00:22:14.228Z,774.6
2017-12-05T00:22:18.458Z,774.62
2017-12-05T00:22:22.883Z,774.58
2017-12-05T00:22:27.121Z,774.61
2017-12-05T00:22:31.447Z,774.64
2017-12-05T00:22:35.799Z,774.6
2017-12-05T00:22:40.028Z,774.59
2017-12-05T00:22:44.075Z,774.62
2017-12-05T00:22:48.331Z,774.59
2017-12-05T00:22:52.612Z,774.61
2017-12-05T00:22:56.942Z,774.62
2017-12-05T00:23:01.298Z,774.6
2017-12-05T00:23:05.534Z,774.62
2017-12-05T00:23:09.768Z,774.59
2017-12-05T00:23:13.895Z,774.59
2017-12-05T00:23:18.150Z,774.6
2017-12-05T00:23:22.521Z,774.62
2017-12-05T00:23:26.802Z,774.61
2017-12-05T00:23:30.842Z,774.62
2017-12-05T00:23:34.988Z,774.62
2017-12-05T00:23:39.124Z,774.61
2017-12-05T00:23:43.473Z,774.61
2017-12-05T00:23:47.830Z,774.59
2017-12-05T00:23:51.986Z,774.61
2017-12-05T00:23:56.222Z,774.6
2017-12-05T00:24:00.357Z,774.57
2017-12-05T00:24:04.609Z,774.6
2017-12-05T00:24:08.746Z,774.59
2017-12-05T00:24:13.100Z,774.63
2017-12-05T00:24:17.330Z,774.6
2017-12-05T00:24:21.568Z,774.58
2017-12-05T00:24:25.722Z,774.61
2017-12-05T00:24:30.018Z,774.6
2017-12-05T00:24:34.248Z,774.63
2017-12-05T00:24:38.483Z,774.6
2017-12-05T00:24:42.731Z,774.59
2017-12-05T00:24:47.089Z,774.56
2017-12-05T00:24:51.238Z,774.58
2017-12-05T00:24:55.570Z,774.6
2017-12-05T00:24:59.910Z,774.62
2017-12-05T00:25:04.054Z,774.61
2017-12-05T00:25:08.201Z,774.62
2017-12-05T00:25:12.447Z,774.61
2017-12-05T00:25:16.574Z,774.56
2017-12-05T00:25:20.920Z,774.61
2017-12-05T00:25:25.256Z,774.56
2017-12-05T00:25:29.497Z,774.56
2017-12-05T00:25:33.739Z,774.59
2017-12-05T00:25:37.974Z,774.61
2017-12-05T00:25:42.314Z,774.61
2017-12-05T00:25:46.346Z,774.62
2017-12-05T00:25:50.488Z,774.59
2017-12-05T00:25:54.838Z,774.59
2017-12-05T00:25:59.096Z,774.62
2017-12-05T00:26:03.447Z,774.6
2017-12-05T00:26:07.692Z,774.61
2017-12-05T00:26:12.048Z,774.59
2017-12-05T00:26:16.391Z,774.62
2017-12-05T00:26:20.789Z,774.57
2017-12-05T00:26:25.150Z,774.61
2017-12-05T00:26:29.499Z,774.61
2017-12-05T00:26:33.746Z,774.62
2017-12-05T00:26:37.981Z,774.58
2017-12-05T00:26:42.108Z,774.6
2017-12-05T00:26:46.343Z,774.58
2017-12-05T00:26:50.690Z,774.62
2017-12-05T00:26:54.926Z,774.61
2017-12-05T00:26:59.175Z,774.63
2017-12-05T00:27:03.528Z,774.64
2017-12-05T00:27:07.757Z,774.59
2017-12-05T00:27:12.105Z,774.61
2017-12-05T00:27:16.225Z,774.62
2017-12-05T00:27:20.479Z,774.63
2017-12-05T00:27:24.815Z,774.6
2017-12-05T00:27:28.961Z,774.64
2017-12-05T00:27:33.302Z,774.63
2017-12-05T00:27:37.637Z,774.58
2017-12-05T00:27:41.887Z,774.58
2017-12-05T00:27:46.231Z,774.6
2017-12-05T00:27:50.472Z,774.59
2017-12-05T00:27:54.751Z,774.57
2017-12-05T00:27:59.102Z,774.58
2017-12-05T00:28:03.344Z,774.6
2017-12-05T00:28:07.694Z,774.59
2017-12-05T00:28:11.931Z,774.59
2017-12-05T00:28:16.078Z,774.59
2017-12-05T00:28:20.201Z,774.6
2017-12-05T00:28:24.563Z,774.67
2017-12-05T00:28:28.704Z,774.67
2017-12-05T00:28:32.947Z,774.68
2017-12-05T00:28:37.293Z,774.62
2017-12-05T00:28:41.317Z,774.61
2017-12-05T00:28:45.648Z,774.64
2017-12-05T00:28:49.559Z,774.65
2017-12-05T00:28:53.912Z,774.64
2017-12-05T00:28:58.067Z,774.64
2017-12-05T00:29:02.458Z,774.65
2017-12-05T00:29:06.687Z,774.65
2017-12-05T00:29:11.033Z,774.66
2017-12-05T00:29:15.316Z,774.66
2017-12-05T00:29:19.653Z,774.65
2017-12-05T00:29:23.892Z,774.65
2017-12-05T00:29:28.035Z,774.67
2017-12-05T00:29:32.276Z,774.65
2017-12-05T00:29:36.301Z,774.69
2017-12-05T00:29:40.646Z,774.67
2017-12-05T00:29:44.784Z,774.69
2017-12-05T00:29:49.027Z,774.66
2017-12-05T00:29:53.370Z,774.68
2017-12-05T00:29:57.626Z,774.68
2017-12-05T00:30:01.709Z,774.68
2017-12-05T00:30:05.861Z,774.66
2017-12-05T00:30:10.406Z,774.68
2017-12-05T00:30:14.629Z,774.67
2017-12-05T00:30:18.866Z,774.68
2017-12-05T00:30:23.212Z,774.7
2017-12-05T00:30:27.548Z,774.68
2017-12-05T00:30:31.685Z,774.69
2017-12-05T00:30:36.023Z,774.7
2017-12-05T00:30:40.368Z,774.69
2017-12-05T00:30:44.619Z,774.68
2017-12-05T00:30:48.755Z,774.69
2017-12-05T00:30:53.017Z,774.71
2017-12-05T00:30:57.382Z,774.69
2017-12-05T00:31:01.524Z,774.71
2017-12-05T00:31:05.773Z,774.7
2017-12-05T00:31:10.133Z,774.73
2017-12-05T00:31:14.371Z,774.7
2017-12-05T00:31:18.718Z,774.71
2017-12-05T00:31:22.962Z,774.7
2017-12-05T00:31:27.220Z,774.72
2017-12-05T00:31:31.549Z,774.73
2017-12-05T00:31:35.807Z,774.72
2017-12-05T00:31:39.924Z,774.74
2017-12-05T00:31:44.175Z,774.75
2017-12-05T00:31:48.318Z,774.74
2017-12-05T00:31:52.664Z,774.75
2017-12-05T00:31:56.903Z,774.76
2017-12-05T00:32:01.252Z,774.73
2017-12-05T00:32:05.493Z,774.76
2017-12-05T00:32:09.654Z,774.71
2017-12-05T00:32:13.791Z,774.75
2017-12-05T00:32:18.036Z,774.76
2017-12-05T00:32:22.260Z,774.73
2017-12-05T00:32:26.511Z,774.76
2017-12-05T00:32:30.873Z,774.75
2017-12-05T00:32:34.986Z,774.76
2017-12-05T00:32:39.126Z,774.76
2017-12-05T00:32:43.144Z,774.74
2017-12-05T00:32:47.298Z,774.75
2017-12-05T00:32:51.532Z,774.74
2017-12-05T00:32:55.888Z,774.74
2017-12-05T00:33:00.026Z,774.77
2017-12-05T00:33:04.613Z,774.8
2017-12-05T00:33:08.968Z,774.76
2017-12-05T00:33:13.313Z,774.7
2017-12-05T00:33:17.551Z,774.74
2017-12-05T00:33:21.906Z,774.76
2017-12-05T00:33:26.142Z,774.79
2017-12-05T00:33:30.377Z,774.81
2017-12-05T00:33:34.719Z,774.81
2017-12-05T00:33:38.748Z,774.79
2017-12-05T00:33:42.889Z,774.8
2017-12-05T00:33:46.935Z,774.82
2017-12-05T00:33:51.176Z,774.8
2017-12-05T00:33:55.424Z,774.82
2017-12-05T00:33:59.663Z,774.82
2017-12-05T00:34:03.908Z,774.8
2017-12-05T00:34:08.144Z,774.79
2017-12-05T00:34:12.493Z,774.81
2017-12-05T00:34:16.838Z,774.82
2017-12-05T00:34:21.084Z,774.83
2017-12-05T00:34:25.323Z,774.82
2017-12-05T00:34:29.455Z,774.81
2017-12-05T00:34:33.805Z,774.85
2017-12-05T00:34:37.947Z,774.84
2017-12-05T00:34:42.277Z,774.84
2017-12-05T00:34:46.635Z,774.85
2017-12-05T00:34:50.786Z,774.85
2017-12-05T00:34:54.814Z,774.83
2017-12-05T00:34:59.160Z,774.82
2017-12-05T00:35:03.406Z,774.82
2017-12-05T00:35:07.646Z,774.81
2017-12-05T00:35:11.990Z,774.84
2017-12-05T00:35:16.339Z,774.83
2017-12-05T00:35:20.689Z,774.85
2017-12-05T00:35:24.922Z,774.85
2017-12-05T00:35:29.066Z,774.83
2017-12-05T00:35:33.093Z,774.83
2017-12-05T00:35:37.447Z,774.86
2017-12-05T00:35:41.699Z,774.86
2017-12-05T00:35:45.833Z,774.89
2017-12-05T00:35:49.961Z,774.87
2017-12-05T00:35:54.198Z,774.88
2017-12-05T00:35:58.443Z,774.85
2017-12-05T00:36:02.474Z,774.85
2017-12-05T00:36:06.828Z,774.84
2017-12-05T00:36:11.063Z,774.85
2017-12-05T00:36:15.422Z,774.82
2017-12-05T00:36:19.669Z,774.87
2017-12-05T00:36:23.917Z,774.85
2017-12-05T00:36:28.208Z,774.83
2017-12-05T00:36:32.661Z,774.85
2017-12-05T00:36:36.918Z,774.83
2017-12-05T00:36:41.153Z,774.84
2017-12-05T00:36:45.277Z,774.84
2017-12-05T00:36:49.421Z,774.84
2017-12-05T00:36:53.766Z,774.85
2017-12-05T00:36:58.117Z,774.84
2017-12-05T00:37:02.453Z,774.85
2017-12-05T00:37:06.684Z,774.83
2017-12-05T00:37:10.930Z,774.87
2017-12-05T00:37:15.159Z,774.8
2017-12-05T00:37:19.390Z,774.82
2017-12-05T00:37:23.635Z,774.84
2017-12-05T00:37:27.981Z,774.85
2017-12-05T00:37:32.238Z,774.85
2017-12-05T00:37:36.376Z,774.84
2017-12-05T00:37:40.423Z,774.85
2017-12-05T00:37:44.766Z,774.81
2017-12-05T00:37:48.998Z,774.86
2017-12-05T00:37:53.024Z,774.82
2017-12-05T00:37:57.154Z,774.86
2017-12-05T00:38:01.293Z,774.82
2017-12-05T00:38:05.542Z,774.82
2017-12-05T00:38:09.779Z,774.86
2017-12-05T00:38:13.905Z,774.84
2017-12-05T00:38:18.264Z,774.85
2017-12-05T00:38:22.493Z,774.83
2017-12-05T00:38:26.737Z,774.89
2017-12-05T00:38:30.883Z,774.87
2017-12-05T00:38:35.242Z,774.87
2017-12-05T00:38:39.485Z,774.89
2017-12-05T00:38:43.612Z,774.86
2017-12-05T00:38:47.956Z,774.86
2017-12-05T00:38:52.197Z,774.87
2017-12-05T00:38:56.453Z,774.87
2017-12-05T00:39:00.657Z,774.86
2017-12-05T00:39:04.894Z,774.85
2017-12-05T00:39:09.142Z,774.87
2017-12-05T00:39:13.382Z,774.89
2017-12-05T00:39:17.611Z,774.86
2017-12-05T00:39:21.969Z,774.9
2017-12-05T00:39:26.212Z,774.89
2017-12-05T00:39:30.463Z,774.89
2017-12-05T00:39:34.807Z,774.94
2017-12-05T00:39:39.158Z,774.88
2017-12-05T00:39:43.396Z,774.87
2017-12-05T00:39:47.628Z,774.89
2017-12-05T00:39:51.763Z,774.83
2017-12-05T00:39:55.903Z,774.87
2017-12-05T00:40:00.142Z,774.85
2017-12-05T00:40:04.364Z,774.87
2017-12-05T00:40:08.617Z,774.88
2017-12-05T00:40:12.852Z,774.88
2017-12-05T00:40:17.199Z,774.86
2017-12-05T00:40:21.602Z,774.85
2017-12-05T00:40:25.967Z,774.84
2017-12-05T00:40:30.315Z,774.85
2017-12-05T00:40:34.560Z,774.9
2017-12-05T00:40:38.701Z,774.92
2017-12-05T00:40:42.952Z,774.89
2017-12-05T00:40:47.186Z,774.91
2017-12-05T00:40:51.534Z,774.89
2017-12-05T00:40:55.683Z,774.91
2017-12-05T00:41:00.043Z,774.92
2017-12-05T00:41:04.279Z,774.91
2017-12-05T00:41:08.628Z,774.88
2017-12-05T00:41:12.881Z,774.89
2017-12-05T00:41:17.125Z,774.88
2017-12-05T00:41:21.464Z,774.88
2017-12-05T00:41:25.700Z,774.91
2017-12-05T00:41:29.836Z,774.92
2017-12-05T00:41:34.177Z,774.9
2017-12-05T00:41:38.524Z,774.93
2017-12-05T00:41:42.938Z,774.91
2017-12-05T00:41:47.196Z,774.92
2017-12-05T00:41:51.336Z,774.91
2017-12-05T00:41:55.748Z,774.91
2017-12-05T00:42:00.097Z,774.88
2017-12-05T00:42:04.132Z,774.92
2017-12-05T00:42:08.165Z,774.92
2017-12-05T00:42:12.305Z,774.92
2017-12-05T00:42:16.654Z,774.88
2017-12-05T00:42:20.890Z,774.91
2017-12-05T00:42:25.026Z,774.88
2017-12-05T00:42:29.074Z,774.9
2017-12-05T00:42:33.317Z,774.9
2017-12-05T00:42:37.561Z,774.93
2017-12-05T00:42:41.896Z,774.96
2017-12-05T00:42:46.134Z,774.92
2017-12-05T00:42:50.490Z,774.92
2017-12-05T00:42:54.634Z,774.95
2017-12-05T00:42:58.877Z,774.94
2017-12-05T00:43:03.021Z,774.91
2017-12-05T00:43:07.275Z,774.93
2017-12-05T00:43:11.521Z,774.9
2017-12-05T00:43:15.860Z,774.89
2017-12-05T00:43:20.203Z,774.9
2017-12-05T00:43:24.552Z,774.91
2017-12-05T00:43:28.807Z,774.92
2017-12-05T00:43:32.930Z,774.91
2017-12-05T00:43:37.280Z,774.94
2017-12-05T00:43:41.540Z,774.89
2017-12-05T00:43:45.775Z,774.89
2017-12-05T00:43:50.017Z,774.9
2017-12-05T00:43:54.352Z,774.92
2017-12-05T00:43:58.595Z,774.95
2017-12-05T00:44:02.947Z,774.95
2017-12-05T00:44:07.186Z,774.91
2017-12-05T00:44:11.316Z,774.91
2017-12-05T00:44:15.468Z,774.9
2017-12-05T00:44:19.830Z,774.93
2017-12-05T00:44:24.176Z,774.93
2017-12-05T00:44:28.503Z,774.94
2017-12-05T00:44:32.523Z,774.92
2017-12-05T00:44:36.872Z,774.93
2017-12-05T00:44:41.004Z,774.91
2017-12-05T00:44:45.338Z,774.92
2017-12-05T00:44:49.687Z,774.92
2017-12-05T00:44:54.011Z,774.93
2017-12-05T00:44:57.926Z,774.91
2017-12-05T00:45:02.469Z,774.88
2017-12-05T00:45:06.714Z,774.94
2017-12-05T00:45:11.052Z,774.92
2017-12-05T00:45:15.185Z,774.91
2017-12-05T00:45:19.424Z,774.92
2017-12-05T00:45:23.771Z,774.94
2017-12-05T00:45:28.110Z,774.94
2017-12-05T00:45:32.451Z,774.94
2017-12-05T00:45:36.811Z,774.98
2017-12-05T00:45:41.167Z,774.92
2017-12-05T00:45:45.452Z,774.91
2017-12-05T00:45:49.489Z,774.95
2017-12-05T00:45:53.730Z,774.97
2017-12-05T00:45:58.081Z,774.95
2017-12-05T00:46:02.323Z,774.97
2017-12-05T00:46:06.453Z,774.93
2017-12-05T00:46:10.798Z,774.95
2017-12-05T00:46:14.923Z,774.97
2017-12-05T00:46:19.170Z,774.97
2017-12-05T00:46:23.411Z,774.96
2017-12-05T00:46:27.555Z,774.97
2017-12-05T00:46:31.814Z,774.96
2017-12-05T00:46:36.158Z,774.95
2017-12-05T00:46:40.520Z,775.01
2017-12-05T00:46:44.747Z,774.98
2017-12-05T00:46:48.998Z,774.96
2017-12-05T00:46:53.350Z,774.97
2017-12-05T00:46:57.387Z,774.97
2017-12-05T00:47:01.764Z,774.99
2017-12-05T00:47:05.906Z,774.95
2017-12-05T00:47:10.240Z,774.98
2017-12-05T00:47:14.592Z,774.98
2017-12-05T00:47:18.836Z,774.97
2017-12-05T00:47:23.168Z,775
2017-12-05T00:47:27.310Z,774.97
2017-12-05T00:47:31.669Z,774.96
2017-12-05T00:47:35.913Z,774.98
2017-12-05T00:47:40.149Z,774.99
2017-12-05T00:47:44.288Z,775.01
2017-12-05T00:47:48.519Z,774.93
2017-12-05T00:47:52.760Z,774.95
2017-12-05T00:47:57.109Z,774.95
2017-12-05T00:48:01.335Z,774.96
2017-12-05T00:48:05.983Z,774.97
2017-12-05T00:48:10.128Z,774.98
2017-12-05T00:48:14.477Z,774.99
2017-12-05T00:48:18.621Z,775
2017-12-05T00:48:22.962Z,775.01
2017-12-05T00:48:27.185Z,774.99
2017-12-05T00:48:31.207Z,774.95
2017-12-05T00:48:35.451Z,774.99
2017-12-05T00:48:39.582Z,774.98
2017-12-05T00:48:43.712Z,774.99
2017-12-05T00:48:47.946Z,775.03
2017-12-05T00:48:52.289Z,775.04
2017-12-05T00:48:56.430Z,775.05
2017-12-05T00:49:00.560Z,775.02
2017-12-05T00:49:04.805Z,775.03
2017-12-05T00:49:09.040Z,775
2017-12-05T00:49:13.165Z,775.05
2017-12-05T00:49:17.427Z,775.02
2017-12-05T00:49:21.783Z,775.02
2017-12-05T00:49:26.127Z,775.04
2017-12-05T00:49:30.388Z,775.05
2017-12-05T00:49:34.648Z,775.01
2017-12-05T00:49:38.905Z,775.06
2017-12-05T00:49:43.145Z,775.05
2017-12-05T00:49:47.169Z,775.05
2017-12-05T00:49:51.416Z,775.05
2017-12-05T00:49:55.545Z,775.06
2017-12-05T00:49:59.772Z,775.02
2017-12-05T00:50:03.809Z,775.08
2017-12-05T00:50:07.940Z,775.04
2017-12-05T00:50:12.171Z,775.07
2017-12-05T00:50:16.310Z,775.03
2017-12-05T00:50:20.556Z,775.06
2017-12-05T00:50:24.914Z,775.04
2017-12-05T00:50:29.036Z,775.06
2017-12-05T00:50:33.176Z,775.05
2017-12-05T00:50:37.401Z,775.02
2017-12-05T00:50:41.434Z,775.02
2017-12-05T00:50:45.841Z,775.02
2017-12-05T00:50:49.966Z,775.01
2017-12-05T00:50:54.222Z,775.01
2017-12-05T00:50:58.355Z,775.02
2017-12-05T00:51:02.705Z,775.01
2017-12-05T00:51:06.834Z,775
2017-12-05T00:51:10.946Z,775.01
2017-12-05T00:51:15.063Z,775.03
2017-12-05T00:51:18.985Z,775.01
2017-12-05T00:51:23.336Z,775
2017-12-05T00:51:27.579Z,775.01
2017-12-05T00:51:31.807Z,774.99
2017-12-05T00:51:36.158Z,775.01
2017-12-05T00:51:40.516Z,775.03
2017-12-05T00:51:44.766Z,775.02
2017-12-05T00:51:49.050Z,775.03
2017-12-05T00:51:53.288Z,775.03
2017-12-05T00:51:57.323Z,775.04
2017-12-05T00:52:01.555Z,775.07
2017-12-05T00:52:05.995Z,774.99
2017-12-05T00:52:10.230Z,775.01
2017-12-05T00:52:14.478Z,774.99
2017-12-05T00:52:18.827Z,775.04
2017-12-05T00:52:23.161Z,775.04
2017-12-05T00:52:27.185Z,775.02
2017-12-05T00:52:31.535Z,774.99
2017-12-05T00:52:35.799Z,775
2017-12-05T00:52:40.149Z,775.05
2017-12-05T00:52:44.509Z,775.01
2017-12-05T00:52:48.540Z,775.04
2017-12-05T00:52:52.971Z,774.99
2017-12-05T00:52:57.112Z,775.01
2017-12-05T00:53:01.466Z,774.98
2017-12-05T00:53:05.751Z,775